Time;durP1;ratioP1;P1;durP2;ratioP2;P2;SDS_P1;SDS_P2;PMS_P1;PMS_P2;Temp;Humidity;BMP_temperature;BMP_pressure;BME280_temperature;BME280_humidity;BME280_pressure;Samples;Min_cycle;Max_cycle;Signal;HPM_P1;HPM_P2
2021/12/11 00:01:10;;;;;;;;;;;;;;;1.47;99.16;99217.88;5029267;28;20301;-85
2021/12/11 00:03:39;;;;;;;;;;;;;;;1.29;100.00;99219.41;5019763;28;19921;-85
2021/12/11 00:06:24;;;;;;;;;;;;;;;1.27;100.00;99216.91;5029063;28;19921;-86
2021/12/11 00:08:51;;;;;;;;;;;;;;;1.37;100.00;99224.78;5016752;28;20410;-85
2021/12/11 00:11:20;;;;;;;;;;;;;;;1.39;99.96;99222.91;5023856;28;19931;-85
2021/12/11 00:13:45;;;;;;;;;;;;;;;1.34;100.00;99230.25;5026257;28;19922;-85
2021/12/11 00:16:13;;;;;;;;;;;;;;;1.34;100.00;99240.69;5032078;28;19944;-85
2021/12/11 00:18:38;;;;;;;;;;;;;;;1.35;100.00;99247.53;5028460;28;19917;-85
2021/12/11 00:21:08;;;;;;;;;;;;;;;1.40;100.00;99253.19;5039835;28;19921;-85
2021/12/11 00:23:34;;;;;;;;;;;;;;;1.37;100.00;99248.22;5037563;28;19989;-85
2021/12/11 00:25:59;;;;;;;;;;;;;;;1.35;100.00;99262.34;5030402;28;19921;-85
2021/12/11 00:28:24;;;;;;;;;;;;;;;1.38;100.00;99262.94;5035022;28;19921;-86
2021/12/11 00:30:50;;;;;;;;;;;;;;;1.39;100.00;99274.16;5026229;28;19921;-86
2021/12/11 00:33:17;;;;;;;;;;;;;;;1.35;100.00;99273.56;5048138;28;19931;-86
2021/12/11 00:35:43;;;;;;;;;;;;;;;1.39;100.00;99277.59;5056792;28;19969;-86
2021/12/11 00:38:10;;;;;;;;;;;;;;;1.40;100.00;99283.63;5037273;28;19936;-85
2021/12/11 00:40:36;;;;;;;;;;;;;;;1.42;99.98;99292.13;5036755;28;19922;-85
2021/12/11 00:43:04;;;;;;;;;;;;;;;1.46;99.43;99296.16;5027987;28;19927;-84
2021/12/11 00:45:32;;;;;;;;;;;;;;;1.37;100.00;99302.09;5031609;28;20337;-85
2021/12/11 00:48:08;;;;;;;;;;;;;;;1.40;100.00;99307.06;5018601;28;19921;-85
2021/12/11 00:50:42;;;;;;;;;;;;;;;1.36;100.00;99310.84;5032991;28;19952;-85
2021/12/11 00:53:10;;;;;;;;;;;;;;;1.45;99.53;99313.56;5045697;28;19917;-85
2021/12/11 00:55:37;;;;;;;;;;;;;;;1.40;99.67;99322.69;5026142;28;19929;-85
2021/12/11 00:58:05;;;;;;;;;;;;;;;1.37;100.00;99331.56;5017893;28;20004;-85
2021/12/11 01:00:34;;;;;;;;;;;;;;;1.41;99.85;99329.56;5022530;28;19968;-84
2021/12/11 01:02:59;;;;;;;;;;;;;;;1.35;100.00;99337.84;5019587;28;19921;-85
2021/12/11 01:05:24;;;;;;;;;;;;;;;1.37;100.00;99341.16;5020305;28;20016;-85
2021/12/11 01:07:52;;;;;;;;;;;;;;;1.37;100.00;99355.03;5025499;28;20453;-85
2021/12/11 01:10:23;;;;;;;;;;;;;;;1.40;100.00;99361.75;5020597;28;20294;-85
2021/12/11 01:12:55;;;;;;;;;;;;;;;1.40;100.00;99362.56;5022975;28;19917;-85
2021/12/11 01:15:20;;;;;;;;;;;;;;;1.40;100.00;99373.00;5034660;28;20413;-86
2021/12/11 01:17:59;;;;;;;;;;;;;;;1.36;100.00;99370.75;5036219;28;19927;-85
2021/12/11 01:20:47;;;;;;;;;;;;;;;1.34;100.00;99385.69;5030425;28;20016;-85
2021/12/11 01:23:33;;;;;;;;;;;;;;;1.39;100.00;99393.97;5020763;28;19921;-85
2021/12/11 01:26:00;;;;;;;;;;;;;;;1.33;100.00;99400.47;5020981;28;19960;-86
2021/12/11 01:28:25;;;;;;;;;;;;;;;1.35;100.00;99408.19;5020236;28;19926;-86
2021/12/11 01:30:51;;;;;;;;;;;;;;;1.41;100.00;99411.13;5043257;28;20342;-84
2021/12/11 01:33:16;;;;;;;;;;;;;;;1.32;100.00;99421.44;5022373;28;19989;-85
2021/12/11 01:35:41;;;;;;;;;;;;;;;1.31;100.00;99431.03;5019643;28;19969;-85
2021/12/11 01:38:14;;;;;;;;;;;;;;;1.32;100.00;99429.25;5032621;28;19917;-85
2021/12/11 01:40:40;;;;;;;;;;;;;;;1.34;100.00;99436.00;5020567;28;19917;-85
2021/12/11 01:43:06;;;;;;;;;;;;;;;1.41;100.00;99438.97;5027383;28;20039;-85
2021/12/11 01:45:32;;;;;;;;;;;;;;;1.45;100.00;99446.41;5036778;28;19929;-85
2021/12/11 01:47:57;;;;;;;;;;;;;;;1.51;100.00;99450.31;5027885;28;19926;-85
2021/12/11 01:50:28;;;;;;;;;;;;;;;1.49;100.00;99455.63;5035275;28;20356;-85
2021/12/11 01:52:59;;;;;;;;;;;;;;;1.48;100.00;99458.38;5032791;28;19932;-85
2021/12/11 01:55:32;;;;;;;;;;;;;;;1.54;100.00;99470.09;5021034;28;20400;-85
2021/12/11 01:57:58;;;;;;;;;;;;;;;1.58;100.00;99467.13;5028918;28;19960;-85
2021/12/11 02:00:31;;;;;;;;;;;;;;;1.65;100.00;99475.28;5026174;28;19922;-85
2021/12/11 02:02:58;;;;;;;;;;;;;;;1.71;100.00;99480.00;5030661;28;19928;-86
2021/12/11 02:05:26;;;;;;;;;;;;;;;1.72;100.00;99494.72;5025997;28;19922;-85
2021/12/11 02:07:55;;;;;;;;;;;;;;;1.73;100.00;99493.75;5015452;28;19975;-85
2021/12/11 02:10:23;;;;;;;;;;;;;;;1.77;100.00;99499.56;5039316;28;19917;-85
2021/12/11 02:12:50;;;;;;;;;;;;;;;1.82;99.91;99506.06;5033468;28;19949;-85
2021/12/11 02:15:18;;;;;;;;;;;;;;;1.82;99.50;99510.44;5023410;28;19926;-85
2021/12/11 02:17:52;;;;;;;;;;;;;;;1.82;99.01;99513.88;5026187;28;19917;-85
2021/12/11 02:20:27;;;;;;;;;;;;;;;1.79;98.13;99510.66;5026390;28;20294;-85
2021/12/11 02:22:52;;;;;;;;;;;;;;;1.71;98.58;99516.47;5019575;28;19924;-85
2021/12/11 02:25:21;;;;;;;;;;;;;;;1.67;98.84;99521.13;5021339;28;19917;-85
2021/12/11 02:27:49;;;;;;;;;;;;;;;1.69;98.63;99536.63;5027169;28;20503;-85
2021/12/11 02:30:35;;;;;;;;;;;;;;;1.67;99.19;99538.53;5019840;28;19952;-85
2021/12/11 02:33:07;;;;;;;;;;;;;;;1.66;98.97;99545.50;5027172;28;19917;-86
2021/12/11 02:35:37;;;;;;;;;;;;;;;1.64;99.65;99554.41;5018612;28;20022;-86
2021/12/11 02:38:10;;;;;;;;;;;;;;;1.62;100.00;99554.53;5026318;28;20067;-85
2021/12/11 02:40:39;;;;;;;;;;;;;;;1.73;99.08;99561.50;5037172;28;19917;-85
2021/12/11 02:43:08;;;;;;;;;;;;;;;1.71;99.16;99568.59;5018767;28;19931;-85
2021/12/11 02:45:39;;;;;;;;;;;;;;;1.69;99.13;99570.50;5027034;28;19921;-85
2021/12/11 02:48:26;;;;;;;;;;;;;;;1.73;98.91;99579.75;5020549;28;19925;-85
2021/12/11 02:50:57;;;;;;;;;;;;;;;1.76;99.25;99578.69;5020798;28;19925;-85
2021/12/11 02:53:26;;;;;;;;;;;;;;;1.82;98.51;99583.44;5021904;28;20393;-86
2021/12/11 02:56:18;;;;;;;;;;;;;;;1.79;98.42;99591.47;5024120;28;19944;-84
2021/12/11 02:58:45;;;;;;;;;;;;;;;1.74;99.37;99594.44;5021280;28;19928;-85
2021/12/11 03:01:20;;;;;;;;;;;;;;;1.77;99.50;99596.00;5028882;28;20467;-85
2021/12/11 03:03:51;;;;;;;;;;;;;;;1.76;99.22;99604.75;5022397;28;20366;-85
2021/12/11 03:06:21;;;;;;;;;;;;;;;1.74;98.96;99611.84;5032911;28;19928;-85
2021/12/11 03:08:47;;;;;;;;;;;;;;;1.71;98.81;99612.91;5020150;28;19973;-84
2021/12/11 03:11:15;;;;;;;;;;;;;;;1.78;98.20;99624.53;5022514;28;20156;-84
2021/12/11 03:13:41;;;;;;;;;;;;;;;1.71;98.50;99623.34;5020921;28;19991;-85
2021/12/11 03:16:08;;;;;;;;;;;;;;;1.72;98.32;99638.03;5030397;28;19922;-84
2021/12/11 03:18:33;;;;;;;;;;;;;;;1.71;98.48;99644.19;5032022;28;19991;-85
2021/12/11 03:20:59;;;;;;;;;;;;;;;1.76;98.27;99651.66;5035757;28;19925;-85
2021/12/11 03:23:24;;;;;;;;;;;;;;;1.73;99.00;99651.91;5027629;28;19925;-85
2021/12/11 03:25:50;;;;;;;;;;;;;;;1.74;98.73;99654.41;5031168;28;20004;-85
2021/12/11 03:28:18;;;;;;;;;;;;;;;1.74;98.53;99659.59;5036603;28;19929;-85
2021/12/11 03:30:50;;;;;;;;;;;;;;;1.73;98.85;99670.97;5027664;28;19929;-85
2021/12/11 03:33:18;;;;;;;;;;;;;;;1.78;98.56;99675.81;5030172;28;20704;-85
2021/12/11 03:35:43;;;;;;;;;;;;;;;1.78;98.96;99681.03;5033158;28;19944;-85
2021/12/11 03:38:09;;;;;;;;;;;;;;;1.79;98.83;99687.91;5020670;28;20394;-85
2021/12/11 03:40:36;;;;;;;;;;;;;;;1.82;98.48;99692.91;5026057;28;19953;-85
2021/12/11 03:43:05;;;;;;;;;;;;;;;1.79;98.73;99696.56;5020131;28;19925;-84
2021/12/11 03:45:32;;;;;;;;;;;;;;;1.81;98.51;99697.28;5029712;28;19999;-85
2021/12/11 03:48:00;;;;;;;;;;;;;;;1.78;98.87;99697.50;5019488;28;19931;-85
2021/12/11 03:50:26;;;;;;;;;;;;;;;1.77;99.36;99711.50;5028444;28;19931;-85
2021/12/11 03:52:53;;;;;;;;;;;;;;;1.80;99.73;99713.03;5028513;28;19921;-85
2021/12/11 03:55:23;;;;;;;;;;;;;;;1.80;99.53;99719.06;5031340;28;19956;-85
2021/12/11 03:57:55;;;;;;;;;;;;;;;1.80;99.24;99723.47;5023569;28;19944;-85
2021/12/11 04:00:22;;;;;;;;;;;;;;;1.79;99.77;99730.47;5038302;28;19967;-85
2021/12/11 04:02:48;;;;;;;;;;;;;;;1.82;100.00;99732.81;5038575;28;19921;-86
2021/12/11 04:05:14;;;;;;;;;;;;;;;1.85;100.00;99742.19;5022116;28;19921;-85
2021/12/11 04:07:41;;;;;;;;;;;;;;;1.88;100.00;99742.81;5037402;28;19921;-85
2021/12/11 04:10:07;;;;;;;;;;;;;;;1.88;100.00;99744.56;5021326;28;19929;-84
2021/12/11 04:12:32;;;;;;;;;;;;;;;1.90;99.88;99751.31;5034279;28;19921;-84
2021/12/11 04:14:58;;;;;;;;;;;;;;;1.91;100.00;99771.25;5027489;28;20204;-85
2021/12/11 04:17:26;;;;;;;;;;;;;;;1.89;100.00;99767.91;5028990;28;19928;-85
2021/12/11 04:19:54;;;;;;;;;;;;;;;1.91;100.00;99776.47;5024773;28;19969;-85
2021/12/11 04:22:19;;;;;;;;;;;;;;;1.94;99.95;99772.78;5026037;28;19928;-85
2021/12/11 04:24:45;;;;;;;;;;;;;;;1.99;99.61;99775.88;5033994;28;20378;-85
2021/12/11 04:27:11;;;;;;;;;;;;;;;2.00;99.71;99774.94;5017343;28;19961;-84
2021/12/11 04:29:37;;;;;;;;;;;;;;;1.99;99.95;99781.09;5023260;28;19925;-85
2021/12/11 04:32:03;;;;;;;;;;;;;;;1.99;99.62;99790.69;5043138;28;19992;-85
2021/12/11 04:34:29;;;;;;;;;;;;;;;2.02;99.35;99793.06;5023206;28;20313;-85
2021/12/11 04:37:00;;;;;;;;;;;;;;;2.00;99.59;99801.03;5018634;28;19964;-85
2021/12/11 04:39:28;;;;;;;;;;;;;;;1.98;99.59;99802.91;5019930;28;20001;-85
2021/12/11 04:42:11;;;;;;;;;;;;;;;1.96;99.68;99802.19;5028318;28;19956;-85
2021/12/11 04:44:40;;;;;;;;;;;;;;;2.01;100.00;99807.06;5033605;28;19928;-85
2021/12/11 04:47:09;;;;;;;;;;;;;;;1.98;99.93;99817.69;5036234;28;19921;-85
2021/12/11 04:49:43;;;;;;;;;;;;;;;1.97;99.76;99810.84;5037239;28;20400;-85
2021/12/11 04:52:18;;;;;;;;;;;;;;;1.95;99.88;99817.94;5028246;28;20009;-85
2021/12/11 04:55:02;;;;;;;;;;;;;;;1.92;100.00;99825.03;5033701;28;19928;-85
2021/12/11 05:00:13;;;;;;;;;;;;;;;2.02;99.29;99834.78;5024472;28;19931;-85
2021/12/11 05:10:28;;;;;;;;;;;;;;;1.97;99.83;99844.72;5023272;28;19923;-84
2021/12/11 05:12:55;;;;;;;;;;;;;;;1.96;99.99;99849.13;5022405;28;20145;-85
2021/12/11 05:15:22;;;;;;;;;;;;;;;1.92;100.00;99860.72;5044758;28;19921;-85
2021/12/11 05:17:48;;;;;;;;;;;;;;;1.92;100.00;99863.31;5026732;28;20354;-86
2021/12/11 05:20:14;;;;;;;;;;;;;;;1.96;100.00;99872.59;5043342;28;19949;-85
2021/12/11 05:22:40;;;;;;;;;;;;;;;1.95;100.00;99881.34;5018848;28;20389;-85
2021/12/11 05:25:06;;;;;;;;;;;;;;;1.95;100.00;99888.34;5027835;28;20122;-85
2021/12/11 05:27:31;;;;;;;;;;;;;;;1.94;100.00;99895.31;5028966;28;19980;-85
2021/12/11 05:29:56;;;;;;;;;;;;;;;1.93;100.00;99898.84;5030833;28;20022;-85
2021/12/11 05:32:24;;;;;;;;;;;;;;;1.97;100.00;99915.13;5028071;28;19975;-85
2021/12/11 05:34:49;;;;;;;;;;;;;;;1.95;100.00;99924.84;5028009;28;19925;-85
2021/12/11 05:37:15;;;;;;;;;;;;;;;1.95;100.00;99924.84;5032063;28;19921;-85
2021/12/11 05:39:40;;;;;;;;;;;;;;;1.99;100.00;99929.72;5023571;28;19961;-85
2021/12/11 05:42:06;;;;;;;;;;;;;;;2.06;99.44;99933.53;5027200;28;19947;-85
2021/12/11 05:44:31;;;;;;;;;;;;;;;2.02;99.75;99932.09;5029553;28;19928;-85
2021/12/11 05:46:56;;;;;;;;;;;;;;;2.06;99.84;99932.72;5019620;28;19921;-85
2021/12/11 05:49:22;;;;;;;;;;;;;;;2.10;99.00;99944.59;5032100;28;19921;-85
2021/12/11 05:51:48;;;;;;;;;;;;;;;2.09;99.43;99953.34;5017839;28;20382;-85
2021/12/11 05:54:21;;;;;;;;;;;;;;;2.07;99.18;99961.31;5038126;28;19928;-85
2021/12/11 05:56:46;;;;;;;;;;;;;;;2.11;98.75;99954.06;5020421;28;20228;-85
2021/12/11 05:59:13;;;;;;;;;;;;;;;2.05;99.25;99965.78;5026804;28;19928;-86
2021/12/11 06:01:44;;;;;;;;;;;;;;;1.96;100.00;99970.84;5023765;28;19925;-85
2021/12/11 06:04:14;;;;;;;;;;;;;;;2.03;98.68;99967.69;5028888;28;19922;-85
2021/12/11 06:06:40;;;;;;;;;;;;;;;2.00;99.43;99969.66;5031972;28;19928;-85
2021/12/11 06:09:06;;;;;;;;;;;;;;;2.02;99.51;99976.41;5025693;28;19925;-85
2021/12/11 06:11:31;;;;;;;;;;;;;;;2.00;99.38;99988.75;5017209;28;19955;-85
2021/12/11 06:13:57;;;;;;;;;;;;;;;1.92;100.00;99985.84;5020807;28;19948;-85
2021/12/11 06:16:22;;;;;;;;;;;;;;;1.89;100.00;99989.50;5031019;28;20301;-84
2021/12/11 06:18:47;;;;;;;;;;;;;;;1.92;100.00;99991.91;5027379;28;20362;-84
2021/12/11 06:21:14;;;;;;;;;;;;;;;1.96;99.67;99996.91;5049046;28;19922;-84
2021/12/11 06:23:39;;;;;;;;;;;;;;;1.97;99.98;100002.00;5031314;28;19921;-85
2021/12/11 06:26:05;;;;;;;;;;;;;;;1.96;100.00;99996.91;5030922;28;19972;-85
2021/12/11 06:28:31;;;;;;;;;;;;;;;1.89;100.00;100010.38;5031482;28;19993;-85
2021/12/11 06:30:58;;;;;;;;;;;;;;;1.86;100.00;100018.41;5034672;28;19944;-85
2021/12/11 06:33:24;;;;;;;;;;;;;;;1.84;100.00;100025.50;5044513;28;19921;-85
2021/12/11 06:35:52;;;;;;;;;;;;;;;1.87;100.00;100035.72;5035473;28;19928;-85
2021/12/11 06:38:19;;;;;;;;;;;;;;;1.91;100.00;100031.97;5030949;28;19926;-85
2021/12/11 06:40:44;;;;;;;;;;;;;;;1.95;100.00;100042.16;5029666;28;19935;-85
2021/12/11 06:43:10;;;;;;;;;;;;;;;1.92;100.00;100053.66;5031406;28;19925;-85
2021/12/11 06:45:35;;;;;;;;;;;;;;;1.92;100.00;100054.47;5029740;28;19921;-85
2021/12/11 06:48:00;;;;;;;;;;;;;;;1.92;100.00;100066.69;5026959;28;19935;-85
2021/12/11 06:50:26;;;;;;;;;;;;;;;1.88;100.00;100073.91;5026823;28;20397;-85
2021/12/11 06:52:51;;;;;;;;;;;;;;;1.85;100.00;100076.69;5030994;28;19928;-85
2021/12/11 06:55:18;;;;;;;;;;;;;;;1.86;100.00;100090.56;5046905;28;19940;-85
2021/12/11 06:57:44;;;;;;;;;;;;;;;1.96;99.10;100096.00;5050399;28;20315;-84
2021/12/11 07:00:10;;;;;;;;;;;;;;;1.99;98.90;100095.78;5040505;28;19921;-84
2021/12/11 07:02:35;;;;;;;;;;;;;;;1.96;99.72;100101.22;5020443;28;19929;-85
2021/12/11 07:05:01;;;;;;;;;;;;;;;2.00;98.87;100105.25;5044635;28;19925;-85
2021/12/11 07:07:32;;;;;;;;;;;;;;;2.09;98.13;100112.44;5030346;28;19925;-85
2021/12/11 07:09:58;;;;;;;;;;;;;;;1.94;99.66;100118.72;5035674;28;20309;-85
2021/12/11 07:12:23;;;;;;;;;;;;;;;1.92;99.89;100127.47;5037562;28;19922;-85
2021/12/11 07:14:49;;;;;;;;;;;;;;;1.96;99.61;100132.50;5045372;28;19922;-85
2021/12/11 07:17:14;;;;;;;;;;;;;;;1.96;99.83;100142.94;5035730;28;19963;-85
2021/12/11 07:19:40;;;;;;;;;;;;;;;1.97;100.00;100152.41;5026249;28;19960;-85
2021/12/11 07:22:05;;;;;;;;;;;;;;;2.05;99.05;100152.69;5030603;28;19921;-85
2021/12/11 07:24:36;;;;;;;;;;;;;;;2.08;98.48;100160.34;5027463;28;20401;-85
2021/12/11 07:27:03;;;;;;;;;;;;;;;2.09;98.47;100173.25;5020228;28;19928;-85
2021/12/11 07:29:30;;;;;;;;;;;;;;;2.11;99.16;100179.19;5026853;28;19957;-85
2021/12/11 07:31:56;;;;;;;;;;;;;;;2.10;99.00;100190.56;5024949;28;19922;-85
2021/12/11 07:34:21;;;;;;;;;;;;;;;2.11;98.73;100196.63;5037567;28;19985;-85
2021/12/11 07:36:47;;;;;;;;;;;;;;;2.15;98.51;100203.31;5020743;28;19964;-85
2021/12/11 07:39:14;;;;;;;;;;;;;;;2.13;98.75;100203.41;5046217;28;20361;-85
2021/12/11 07:41:40;;;;;;;;;;;;;;;2.18;98.62;100213.53;5016987;28;19921;-85
2021/12/11 07:44:05;;;;;;;;;;;;;;;2.17;98.36;100218.84;5023345;28;19948;-85
2021/12/11 07:46:31;;;;;;;;;;;;;;;2.19;98.78;100230.00;5027522;28;19921;-84
2021/12/11 07:48:59;;;;;;;;;;;;;;;2.21;98.94;100236.78;5030277;28;19949;-85
2021/12/11 07:51:26;;;;;;;;;;;;;;;2.26;98.53;100239.06;5017041;28;20377;-84
2021/12/11 07:53:52;;;;;;;;;;;;;;;2.26;98.47;100250.34;5028107;28;19925;-86
2021/12/11 07:56:18;;;;;;;;;;;;;;;2.31;98.30;100256.09;5019250;28;20004;-85
2021/12/11 07:58:44;;;;;;;;;;;;;;;2.31;98.80;100263.06;5023501;28;19925;-85
2021/12/11 08:01:09;;;;;;;;;;;;;;;2.28;99.38;100261.50;5019153;28;19928;-85
2021/12/11 08:03:36;;;;;;;;;;;;;;;2.31;99.13;100273.50;5020910;28;19944;-85
2021/12/11 08:06:02;;;;;;;;;;;;;;;2.38;98.52;100273.91;5026990;28;19925;-85
2021/12/11 08:08:27;;;;;;;;;;;;;;;2.45;97.58;100277.78;5027484;28;19926;-85
2021/12/11 08:10:54;;;;;;;;;;;;;;;2.40;98.28;100287.69;5028454;28;19925;-86
2021/12/11 08:13:19;;;;;;;;;;;;;;;2.41;98.18;100294.56;5019716;28;19921;-85
2021/12/11 08:15:45;;;;;;;;;;;;;;;2.35;98.86;100298.44;5018937;28;20390;-85
2021/12/11 08:18:11;;;;;;;;;;;;;;;2.39;98.85;100292.09;5027974;28;19937;-85
2021/12/11 08:20:37;;;;;;;;;;;;;;;2.51;97.77;100308.69;5029386;28;19917;-85
2021/12/11 08:23:03;;;;;;;;;;;;;;;2.61;97.08;100301.88;5043630;28;20358;-84
2021/12/11 08:25:29;;;;;;;;;;;;;;;2.59;96.56;100313.38;5031639;28;19956;-85
2021/12/11 08:27:55;;;;;;;;;;;;;;;2.57;97.40;100315.25;5022418;28;20448;-85
2021/12/11 08:30:21;;;;;;;;;;;;;;;2.63;97.15;100314.84;5022234;28;19933;-85
2021/12/11 08:32:46;;;;;;;;;;;;;;;2.64;97.07;100319.94;5031299;28;19927;-86
2021/12/11 08:35:13;;;;;;;;;;;;;;;2.66;97.19;100323.28;5029710;28;19964;-84
2021/12/11 08:37:39;;;;;;;;;;;;;;;2.76;96.83;100328.69;5043220;28;19984;-85
2021/12/11 08:40:07;;;;;;;;;;;;;;;2.76;96.41;100340.00;5028636;28;19976;-85
2021/12/11 08:42:32;;;;;;;;;;;;;;;2.74;96.48;100341.88;5020273;28;20386;-85
2021/12/11 08:45:05;;;;;;;;;;;;;;;2.86;96.15;100350.63;5021311;28;20128;-85
2021/12/11 08:47:30;;;;;;;;;;;;;;;2.87;96.26;100356.69;5021192;28;20004;-86
2021/12/11 08:49:56;;;;;;;;;;;;;;;2.96;96.08;100358.66;5030536;28;19961;-85
2021/12/11 08:52:24;;;;;;;;;;;;;;;2.95;95.71;100362.19;5033629;28;19952;-86
2021/12/11 08:54:49;;;;;;;;;;;;;;;3.01;95.32;100364.41;5031361;28;19971;-86
2021/12/11 08:57:18;;;;;;;;;;;;;;;3.05;94.54;100365.88;5031302;28;20297;-86
2021/12/11 08:59:47;;;;;;;;;;;;;;;2.98;94.57;100370.66;5028630;28;20171;-86
2021/12/11 09:02:14;;;;;;;;;;;;;;;2.94;95.16;100374.44;5023196;28;20000;-86
2021/12/11 09:04:45;;;;;;;;;;;;;;;3.00;95.42;100381.00;5044451;28;19977;-85
2021/12/11 09:07:14;;;;;;;;;;;;;;;3.06;95.60;100385.81;5031374;28;19917;-86
2021/12/11 09:09:49;;;;;;;;;;;;;;;3.16;95.52;100386.81;5028220;28;19925;-85
2021/12/11 09:12:17;;;;;;;;;;;;;;;3.27;95.41;100404.38;5023687;28;19921;-86
2021/12/11 09:14:48;;;;;;;;;;;;;;;3.31;95.01;100402.38;5023177;28;19918;-86
2021/12/11 09:17:25;;;;;;;;;;;;;;;3.45;94.76;100417.06;5035943;28;19917;-86
2021/12/11 09:19:56;;;;;;;;;;;;;;;3.50;94.56;100418.41;5026879;28;20279;-86
2021/12/11 09:22:34;;;;;;;;;;;;;;;3.55;94.64;100425.94;5038850;28;19929;-86
2021/12/11 09:25:06;;;;;;;;;;;;;;;3.59;94.71;100438.69;5044727;28;19921;-86
2021/12/11 09:27:51;;;;;;;;;;;;;;;3.55;94.01;100439.84;5022915;28;19928;-87
2021/12/11 09:30:49;;;;;;;;;;;;;;;3.65;94.97;100449.63;5018281;28;20247;-86
2021/12/11 09:33:17;;;;;;;;;;;;;;;3.73;94.51;100453.38;5014391;28;19932;-85
2021/12/11 09:36:03;;;;;;;;;;;;;;;3.79;94.66;100459.94;5034538;28;19964;-86
2021/12/11 09:38:30;;;;;;;;;;;;;;;3.83;93.99;100461.41;5038630;28;19989;-86
2021/12/11 09:40:55;;;;;;;;;;;;;;;3.80;93.01;100461.63;5022930;28;19922;-86
2021/12/11 09:43:31;;;;;;;;;;;;;;;3.87;93.89;100472.50;5043142;28;20302;-86
2021/12/11 09:45:56;;;;;;;;;;;;;;;3.91;93.66;100469.56;5019119;28;20016;-86
2021/12/11 09:48:22;;;;;;;;;;;;;;;3.96;93.10;100477.91;5020520;28;20394;-86
2021/12/11 09:50:55;;;;;;;;;;;;;;;3.89;93.16;100476.69;5036836;28;19952;-86
2021/12/11 09:53:23;;;;;;;;;;;;;;;3.91;92.90;100476.53;5024210;28;19924;-85
2021/12/11 09:55:48;;;;;;;;;;;;;;;4.02;93.07;100471.38;5022657;28;19957;-86
2021/12/11 09:58:17;;;;;;;;;;;;;;;4.02;91.45;100474.00;5024944;28;19922;-86
2021/12/11 10:00:46;;;;;;;;;;;;;;;4.06;91.89;100482.47;5024044;28;19975;-86
2021/12/11 10:03:14;;;;;;;;;;;;;;;4.06;90.70;100485.94;5025897;28;19928;-86
2021/12/11 10:05:45;;;;;;;;;;;;;;;3.98;90.90;100488.25;5029070;28;19921;-86
2021/12/11 10:08:37;;;;;;;;;;;;;;;4.01;90.96;100493.28;5038321;28;19929;-86
2021/12/11 10:11:02;;;;;;;;;;;;;;;4.05;90.71;100499.94;5025104;28;20325;-86
2021/12/11 10:13:28;;;;;;;;;;;;;;;3.97;91.00;100503.09;5043561;28;19945;-86
2021/12/11 10:15:53;;;;;;;;;;;;;;;4.01;91.63;100503.75;5030755;28;19925;-86
2021/12/11 10:18:21;;;;;;;;;;;;;;;4.08;91.15;100499.75;5026830;28;19929;-86
2021/12/11 10:20:46;;;;;;;;;;;;;;;4.04;91.00;100503.50;5028246;28;20349;-86
2021/12/11 10:23:15;;;;;;;;;;;;;;;4.16;91.47;100512.25;5029660;28;19928;-86
2021/12/11 10:25:42;;;;;;;;;;;;;;;4.20;90.69;100513.72;5024611;28;19957;-86
2021/12/11 10:28:09;;;;;;;;;;;;;;;4.25;90.42;100514.22;5024017;28;19931;-85
2021/12/11 10:30:36;;;;;;;;;;;;;;;4.22;90.37;100517.06;5021831;28;19929;-86
2021/12/11 10:33:03;;;;;;;;;;;;;;;4.28;90.79;100515.78;5020900;28;19929;-86
2021/12/11 10:35:32;;;;;;;;;;;;;;;4.37;91.22;100513.31;5028907;28;19922;-86
2021/12/11 10:37:58;;;;;;;;;;;;;;;4.46;90.95;100514.44;5039399;28;19918;-86
2021/12/11 10:40:26;;;;;;;;;;;;;;;4.56;90.38;100522.44;5028833;28;19921;-85
2021/12/11 10:42:54;;;;;;;;;;;;;;;4.48;87.83;100517.75;5040455;28;19980;-86
2021/12/11 10:45:20;;;;;;;;;;;;;;;4.38;89.17;100527.25;5042453;28;19963;-86
2021/12/11 10:47:48;;;;;;;;;;;;;;;4.31;88.93;100531.25;5045617;28;20309;-86
2021/12/11 10:50:27;;;;;;;;;;;;;;;4.39;90.15;100529.75;5035619;28;19918;-86
2021/12/11 10:52:52;;;;;;;;;;;;;;;4.36;88.24;100535.22;5027773;28;19951;-85
2021/12/11 10:55:19;;;;;;;;;;;;;;;4.52;89.71;100541.94;5024638;28;19949;-86
2021/12/11 10:57:45;;;;;;;;;;;;;;;4.46;88.22;100538.84;5024426;28;19964;-86
2021/12/11 11:00:24;;;;;;;;;;;;;;;4.51;87.19;100540.28;5033439;28;19925;-87
2021/12/11 11:02:49;;;;;;;;;;;;;;;4.51;87.70;100543.72;5050206;28;19924;-86
2021/12/11 11:05:16;;;;;;;;;;;;;;;4.43;86.37;100541.69;5023279;28;19929;-86
2021/12/11 11:07:42;;;;;;;;;;;;;;;4.48;88.33;100543.94;5036700;28;19964;-86
2021/12/11 11:10:10;;;;;;;;;;;;;;;4.58;87.00;100552.81;5045745;28;19937;-86
2021/12/11 11:12:35;;;;;;;;;;;;;;;4.64;88.03;100554.13;5023664;28;19925;-85
2021/12/11 11:15:00;;;;;;;;;;;;;;;4.60;88.41;100560.53;5030587;28;20310;-85
2021/12/11 11:17:30;;;;;;;;;;;;;;;4.76;87.57;100563.69;5033409;28;19992;-86
2021/12/11 11:19:56;;;;;;;;;;;;;;;4.74;86.32;100572.63;5031973;28;19922;-86
2021/12/11 11:22:24;;;;;;;;;;;;;;;4.81;87.62;100569.44;5058450;28;19929;-86
2021/12/11 11:25:10;;;;;;;;;;;;;;;4.92;87.31;100575.69;5033798;28;20168;-86
2021/12/11 11:27:37;;;;;;;;;;;;;;;4.86;85.13;100567.34;5031729;28;19921;-86
2021/12/11 11:30:04;;;;;;;;;;;;;;;4.89;87.07;100574.13;5030496;28;19926;-85
2021/12/11 11:32:33;;;;;;;;;;;;;;;4.97;87.54;100577.00;5036467;28;19964;-87
2021/12/11 11:35:05;;;;;;;;;;;;;;;5.03;86.71;100580.94;5034679;28;19921;-86
2021/12/11 11:37:32;;;;;;;;;;;;;;;4.91;85.14;100577.47;5032451;28;20087;-86
2021/12/11 11:39:57;;;;;;;;;;;;;;;4.96;86.37;100579.72;5035346;28;19921;-85
2021/12/11 11:42:22;;;;;;;;;;;;;;;4.98;86.20;100585.69;5025099;28;19925;-87
2021/12/11 11:44:48;;;;;;;;;;;;;;;4.87;85.02;100589.94;5039257;28;19925;-86
2021/12/11 11:47:15;;;;;;;;;;;;;;;4.95;85.46;100592.00;5038754;28;19922;-85
2021/12/11 11:49:40;;;;;;;;;;;;;;;4.93;85.40;100591.25;5044336;28;19948;-86
2021/12/11 11:52:14;;;;;;;;;;;;;;;4.86;84.92;100593.53;5029190;28;19920;-86
2021/12/11 11:54:41;;;;;;;;;;;;;;;4.88;86.31;100598.63;5039827;28;20007;-85
2021/12/11 11:57:19;;;;;;;;;;;;;;;4.91;85.53;100598.44;5047134;28;19925;-86
2021/12/11 11:59:45;;;;;;;;;;;;;;;4.92;85.44;100602.72;5030058;28;20314;-86
2021/12/11 12:02:17;;;;;;;;;;;;;;;5.03;84.75;100604.53;5026736;28;19953;-86
2021/12/11 12:04:43;;;;;;;;;;;;;;;4.88;84.78;100603.88;5038711;28;20005;-86
2021/12/11 12:07:09;;;;;;;;;;;;;;;4.92;83.87;100607.13;5034743;28;20291;-87
2021/12/11 12:09:38;;;;;;;;;;;;;;;5.01;85.28;100598.59;5034557;28;19933;-86
2021/12/11 12:12:05;;;;;;;;;;;;;;;5.07;85.28;100606.81;5041107;28;19928;-86
2021/12/11 12:14:32;;;;;;;;;;;;;;;5.07;83.89;100606.81;5028009;28;19921;-87
2021/12/11 12:16:58;;;;;;;;;;;;;;;4.85;83.37;100604.94;5047419;28;19922;-86
2021/12/11 12:19:24;;;;;;;;;;;;;;;4.85;84.54;100606.72;5041294;28;20433;-86
2021/12/11 12:21:51;;;;;;;;;;;;;;;4.89;83.04;100606.41;5040543;28;19917;-86
2021/12/11 12:24:19;;;;;;;;;;;;;;;4.77;83.58;100609.91;5044647;28;19980;-86
2021/12/11 12:26:45;;;;;;;;;;;;;;;4.64;83.21;100617.00;5048900;28;20386;-87
2021/12/11 12:29:11;;;;;;;;;;;;;;;4.60;83.80;100611.16;5026720;28;19929;-86
2021/12/11 12:31:50;;;;;;;;;;;;;;;4.59;83.58;100617.31;5033043;28;19964;-86
2021/12/11 12:34:16;;;;;;;;;;;;;;;4.57;83.80;100621.00;5025363;28;20390;-86
2021/12/11 12:36:44;;;;;;;;;;;;;;;4.60;83.53;100620.78;5026060;28;19928;-86
2021/12/11 12:39:09;;;;;;;;;;;;;;;4.55;83.83;100620.28;5023213;28;19936;-87
2021/12/11 12:41:37;;;;;;;;;;;;;;;4.50;83.69;100623.22;5021927;28;19917;-86
2021/12/11 12:44:17;;;;;;;;;;;;;;;4.29;85.61;100617.75;5033806;28;20004;-86
2021/12/11 12:46:45;;;;;;;;;;;;;;;4.28;85.27;100630.94;5041095;28;20279;-86
2021/12/11 12:49:11;;;;;;;;;;;;;;;4.26;85.08;100637.09;5034277;28;19929;-87
2021/12/11 12:51:37;;;;;;;;;;;;;;;4.34;84.60;100640.97;5020025;28;19953;-87
2021/12/11 12:54:03;;;;;;;;;;;;;;;4.38;84.61;100643.25;5018667;28;19944;-86
2021/12/11 12:56:31;;;;;;;;;;;;;;;4.38;85.32;100640.63;5040583;28;19984;-86
2021/12/11 12:58:58;;;;;;;;;;;;;;;4.49;84.44;100646.91;5042267;28;19942;-86
2021/12/11 13:01:29;;;;;;;;;;;;;;;4.51;84.43;100652.88;5027282;28;19957;-87
2021/12/11 13:03:55;;;;;;;;;;;;;;;4.55;84.65;100655.13;5027708;28;20008;-86